This is the latest recevied weather packets stored in our database for station/object KG5APU. If no packets are shown the sender has not sent any weather packets the latest 1 day(s).
| Time | Temp. | Humidity | Pressure | Rain* | Wind** | Luminosity | Snow |
|---|---|---|---|---|---|---|---|
| 1778093085 | 13.89° C | 85% | 1015.2 hPa | 0 mm | - | 117 W/m² | - |
| 1778091878 | 13.33° C | 86% | 1014.2 hPa | 0 mm | - | 160 W/m² | - |
| 1778090672 | 13.33° C | 86% | 1014 hPa | 0 mm | - | 265 W/m² | - |
| 1778084054 | 12.22° C | 92% | 1015.5 hPa | 0 mm | - | 299 W/m² | - |
| 1778083454 | 12.22° C | 91% | 1014.4 hPa | 1.78 mm | - | 216 W/m² | - |
| 1778082849 | 12.22° C | 89% | 1013.6 hPa | 3.05 mm | - | 264 W/m² | - |
| 1778081731 | 12.78° C | 83% | 1017.2 hPa | 0 mm | - | 17 W/m² | - |
| 1778079325 | 12.78° C | 83% | 1015.6 hPa | 0 mm | - | 60 W/m² | - |
| 1778078725 | 12.78° C | 84% | 1015.8 hPa | 0 mm | - | 71 W/m² | - |
| 1778076911 | 12.22° C | 84% | 1015.3 hPa | 0 mm | - | 69 W/m² | - |
| 1778075706 | 11.67° C | 84% | 1014.6 hPa | 0 mm | - | 57 W/m² | - |
| 1778073903 | 11.67° C | 84% | 1014 hPa | 0 mm | - | 32 W/m² | - |
| 1778071487 | 12.22° C | 84% | 1013.9 hPa | 0 mm | - | 24 W/m² | - |
| 1778070883 | 12.22° C | 84% | 1014.1 hPa | 0 mm | - | 21 W/m² | - |
| 1778069072 | 12.22° C | 83% | 1013.8 hPa | 0 mm | - | 6 W/m² | - |
| 1778065454 | 12.78° C | 79% | 1012.6 hPa | 0 mm | - | 0 W/m² | - |
| 1778064248 | 12.78° C | 78% | 1012.2 hPa | 0 mm | - | 0 W/m² | - |
| 1778062436 | 13.33° C | 77% | 1011.6 hPa | 0 mm | - | 0 W/m² | - |
| 1778061832 | 13.33° C | 77% | 1011.4 hPa | 0 mm | - | 0 W/m² | - |
| 1778060623 | 13.89° C | 77% | 1011.5 hPa | 0 mm | - | 0 W/m² | - |
| 1778058220 | 13.89° C | 76% | 1011 hPa | 0 mm | - | 0 W/m² | - |
| 1778057618 | 13.89° C | 77% | 1010.7 hPa | 0 mm | - | 0 W/m² | - |
| 1778057018 | 13.89° C | 77% | 1010.8 hPa | 0 mm | - | 0 W/m² | - |
| 1778055817 | 13.89° C | 76% | 1010.5 hPa | 0 mm | - | 0 W/m² | - |
| 1778054617 | 13.89° C | 77% | 1010.5 hPa | 0 mm | - | 0 W/m² | - |
* Rain latest hour (hover to see other rain measurements)
** Current wind speed in m/s (hover to see current wind gust speed)